sensor_id;sensor_type;location;lat;lon;timestamp;pressure;altitude;pressure_sealevel;temperature;humidity
22214;BME280;11276;43.566;27.824;2022-07-03T00:02:20;99282.22;;;21.65;95.31
22214;BME280;11276;43.566;27.824;2022-07-03T00:04:47;99272.69;;;21.62;95.30
22214;BME280;11276;43.566;27.824;2022-07-03T00:07:13;99281.88;;;21.53;96.09
22214;BME280;11276;43.566;27.824;2022-07-03T00:09:40;99255.28;;;21.37;96.68
22214;BME280;11276;43.566;27.824;2022-07-03T00:12:07;99279.56;;;21.50;96.43
22214;BME280;11276;43.566;27.824;2022-07-03T00:14:35;99281.88;;;21.53;96.21
22214;BME280;11276;43.566;27.824;2022-07-03T00:17:02;99256.56;;;21.41;96.44
22214;BME280;11276;43.566;27.824;2022-07-03T00:19:29;99258.47;;;21.47;95.06
22214;BME280;11276;43.566;27.824;2022-07-03T00:22:02;99276.22;;;21.48;96.40
22214;BME280;11276;43.566;27.824;2022-07-03T00:24:50;99263.22;;;21.30;96.78
22214;BME280;11276;43.566;27.824;2022-07-03T00:27:19;99270.72;;;21.35;97.04
22214;BME280;11276;43.566;27.824;2022-07-03T00:29:46;99255.75;;;21.26;97.55
22214;BME280;11276;43.566;27.824;2022-07-03T00:32:19;99272.28;;;21.29;97.51
22214;BME280;11276;43.566;27.824;2022-07-03T00:34:50;99275.13;;;21.28;97.77
22214;BME280;11276;43.566;27.824;2022-07-03T00:37:17;99267.22;;;21.20;98.45
22214;BME280;11276;43.566;27.824;2022-07-03T00:39:44;99267.47;;;21.25;98.23
22214;BME280;11276;43.566;27.824;2022-07-03T00:42:11;99265.19;;;21.22;97.61
22214;BME280;11276;43.566;27.824;2022-07-03T00:44:46;99263.88;;;21.18;97.16
22214;BME280;11276;43.566;27.824;2022-07-03T00:47:17;99257.69;;;21.17;97.33
22214;BME280;11276;43.566;27.824;2022-07-03T00:49:47;99234.59;;;21.01;97.02
22214;BME280;11276;43.566;27.824;2022-07-03T00:52:16;99226.91;;;20.98;97.07
22214;BME280;11276;43.566;27.824;2022-07-03T00:55:06;99250.16;;;21.13;96.99
22214;BME280;11276;43.566;27.824;2022-07-03T00:57:35;99256.28;;;21.07;97.98
22214;BME280;11276;43.566;27.824;2022-07-03T01:00:02;99228.94;;;20.96;97.68
22214;BME280;11276;43.566;27.824;2022-07-03T01:03:05;99239.28;;;20.99;97.79
22214;BME280;11276;43.566;27.824;2022-07-03T01:05:36;99230.41;;;20.84;97.21
22214;BME280;11276;43.566;27.824;2022-07-03T01:16:43;99243.69;;;20.92;98.27
22214;BME280;11276;43.566;27.824;2022-07-03T01:27:14;99229.28;;;20.64;98.79
22214;BME280;11276;43.566;27.824;2022-07-03T01:30:05;99233.91;;;20.70;99.62
22214;BME280;11276;43.566;27.824;2022-07-03T01:33:19;99229.38;;;20.56;99.56
22214;BME280;11276;43.566;27.824;2022-07-03T01:35:22;99236.38;;;20.57;99.61
22214;BME280;11276;43.566;27.824;2022-07-03T01:37:52;99247.66;;;20.67;100.00
22214;BME280;11276;43.566;27.824;2022-07-03T01:40:21;99225.75;;;20.49;99.47
22214;BME280;11276;43.566;27.824;2022-07-03T01:42:51;99222.78;;;20.44;99.48
22214;BME280;11276;43.566;27.824;2022-07-03T01:45:19;99243.63;;;20.48;99.32
22214;BME280;11276;43.566;27.824;2022-07-03T01:47:47;99230.50;;;20.39;99.05
22214;BME280;11276;43.566;27.824;2022-07-03T01:50:15;99244.63;;;20.47;99.77
22214;BME280;11276;43.566;27.824;2022-07-03T01:52:43;99250.81;;;20.48;99.37
22214;BME280;11276;43.566;27.824;2022-07-03T01:55:13;99238.91;;;20.36;99.12
22214;BME280;11276;43.566;27.824;2022-07-03T01:57:45;99252.16;;;20.52;97.34
22214;BME280;11276;43.566;27.824;2022-07-03T02:00:22;99249.56;;;20.58;97.84
22214;BME280;11276;43.566;27.824;2022-07-03T02:02:57;99230.53;;;20.53;96.64
22214;BME280;11276;43.566;27.824;2022-07-03T02:05:37;99229.41;;;20.48;95.55
22214;BME280;11276;43.566;27.824;2022-07-03T02:11:04;99258.41;;;20.59;93.86
22214;BME280;11276;43.566;27.824;2022-07-03T02:13:39;99234.72;;;20.56;95.17
22214;BME280;11276;43.566;27.824;2022-07-03T02:16:08;99251.53;;;20.65;96.08
22214;BME280;11276;43.566;27.824;2022-07-03T02:18:37;99258.88;;;20.62;96.88
22214;BME280;11276;43.566;27.824;2022-07-03T02:23:32;99249.81;;;20.49;95.88
22214;BME280;11276;43.566;27.824;2022-07-03T02:26:03;99245.13;;;20.51;96.29
22214;BME280;11276;43.566;27.824;2022-07-03T02:31:16;99260.28;;;20.73;97.69
22214;BME280;11276;43.566;27.824;2022-07-03T02:33:46;99244.03;;;20.60;100.00
22214;BME280;11276;43.566;27.824;2022-07-03T02:36:14;99264.19;;;20.85;100.00
22214;BME280;11276;43.566;27.824;2022-07-03T02:38:44;99252.53;;;20.78;100.00
22214;BME280;11276;43.566;27.824;2022-07-03T02:41:19;99244.22;;;20.73;100.00
22214;BME280;11276;43.566;27.824;2022-07-03T02:52:15;99258.28;;;20.75;100.00
22214;BME280;11276;43.566;27.824;2022-07-03T02:54:45;99252.53;;;20.78;100.00
22214;BME280;11276;43.566;27.824;2022-07-03T02:57:19;99259.69;;;21.00;100.00
22214;BME280;11276;43.566;27.824;2022-07-03T02:59:57;99262.09;;;21.10;100.00
22214;BME280;11276;43.566;27.824;2022-07-03T03:05:05;99227.34;;;20.87;100.00
22214;BME280;11276;43.566;27.824;2022-07-03T03:07:58;99264.31;;;20.92;100.00
22214;BME280;11276;43.566;27.824;2022-07-03T03:10:26;99243.22;;;20.74;100.00
22214;BME280;11276;43.566;27.824;2022-07-03T03:13:03;99264.09;;;20.93;100.00
22214;BME280;11276;43.566;27.824;2022-07-03T03:15:32;99247.97;;;20.87;100.00
22214;BME280;11276;43.566;27.824;2022-07-03T03:18:07;99264.09;;;20.79;100.00
22214;BME280;11276;43.566;27.824;2022-07-03T03:20:36;99265.94;;;20.78;100.00
22214;BME280;11276;43.566;27.824;2022-07-03T03:25:55;99268.84;;;20.54;100.00
22214;BME280;11276;43.566;27.824;2022-07-03T03:28:21;99248.66;;;20.66;100.00
22214;BME280;11276;43.566;27.824;2022-07-03T03:30:48;99234.44;;;20.51;100.00
22214;BME280;11276;43.566;27.824;2022-07-03T03:33:16;99239.72;;;20.74;100.00
22214;BME280;11276;43.566;27.824;2022-07-03T03:35:43;99245.78;;;20.68;100.00
22214;BME280;11276;43.566;27.824;2022-07-03T03:38:11;99264.19;;;20.85;100.00
22214;BME280;11276;43.566;27.824;2022-07-03T03:40:38;99261.25;;;20.95;100.00
22214;BME280;11276;43.566;27.824;2022-07-03T03:43:05;99257.75;;;20.94;100.00
22214;BME280;11276;43.566;27.824;2022-07-03T03:45:32;99233.25;;;20.83;100.00
22214;BME280;11276;43.566;27.824;2022-07-03T03:47:59;99255.72;;;20.96;100.00
22214;BME280;11276;43.566;27.824;2022-07-03T03:50:25;99246.31;;;21.00;100.00
22214;BME280;11276;43.566;27.824;2022-07-03T03:52:53;99236.78;;;20.98;100.00
22214;BME280;11276;43.566;27.824;2022-07-03T03:55:20;99254.97;;;21.02;100.00
22214;BME280;11276;43.566;27.824;2022-07-03T03:57:47;99261.25;;;21.10;100.00
22214;BME280;11276;43.566;27.824;2022-07-03T04:00:14;99266.53;;;21.18;100.00
22214;BME280;11276;43.566;27.824;2022-07-03T04:02:41;99270.72;;;21.35;100.00
22214;BME280;11276;43.566;27.824;2022-07-03T04:05:08;99271.72;;;21.34;100.00
22214;BME280;11276;43.566;27.824;2022-07-03T04:07:34;99251.69;;;21.30;100.00
22214;BME280;11276;43.566;27.824;2022-07-03T04:10:01;99272.81;;;21.54;100.00
22214;BME280;11276;43.566;27.824;2022-07-03T04:12:28;99250.38;;;21.55;100.00
22214;BME280;11276;43.566;27.824;2022-07-03T04:14:58;99271.22;;;21.74;100.00
22214;BME280;11276;43.566;27.824;2022-07-03T04:17:25;99269.31;;;21.89;100.00
22214;BME280;11276;43.566;27.824;2022-07-03T04:19:52;99261.84;;;21.85;100.00
22214;BME280;11276;43.566;27.824;2022-07-03T04:22:18;99260.69;;;22.09;100.00
22214;BME280;11276;43.566;27.824;2022-07-03T04:24:45;99269.63;;;22.16;100.00
22214;BME280;11276;43.566;27.824;2022-07-03T04:27:12;99254.50;;;22.08;100.00
22214;BME280;11276;43.566;27.824;2022-07-03T04:29:39;99279.28;;;22.10;100.00
22214;BME280;11276;43.566;27.824;2022-07-03T04:32:06;99259.09;;;22.14;100.00
22214;BME280;11276;43.566;27.824;2022-07-03T04:34:33;99256.16;;;22.30;100.00
22214;BME280;11276;43.566;27.824;2022-07-03T04:36:59;99271.53;;;22.43;100.00
22214;BME280;11276;43.566;27.824;2022-07-03T04:39:26;99281.75;;;22.54;100.00
22214;BME280;11276;43.566;27.824;2022-07-03T04:41:53;99282.66;;;22.61;100.00
22214;BME280;11276;43.566;27.824;2022-07-03T04:44:19;99255.94;;;22.53;100.00
22214;BME280;11276;43.566;27.824;2022-07-03T04:46:46;99265.97;;;22.66;100.00
22214;BME280;11276;43.566;27.824;2022-07-03T04:49:13;99264.84;;;22.82;100.00
22214;BME280;11276;43.566;27.824;2022-07-03T04:51:40;99279.13;;;23.10;100.00
22214;BME280;11276;43.566;27.824;2022-07-03T04:54:06;99277.16;;;23.32;100.00
22214;BME280;11276;43.566;27.824;2022-07-03T04:56:33;99268.31;;;23.31;100.00
22214;BME280;11276;43.566;27.824;2022-07-03T04:59:00;99281.66;;;23.52;100.00
22214;BME280;11276;43.566;27.824;2022-07-03T05:01:27;99281.09;;;23.64;100.00
22214;BME280;11276;43.566;27.824;2022-07-03T05:03:53;99270.75;;;23.61;100.00
22214;BME280;11276;43.566;27.824;2022-07-03T05:06:20;99259.53;;;23.57;100.00
22214;BME280;11276;43.566;27.824;2022-07-03T05:08:47;99257.53;;;23.72;100.00
22214;BME280;11276;43.566;27.824;2022-07-03T05:11:14;99270.81;;;23.87;100.00
22214;BME280;11276;43.566;27.824;2022-07-03T05:13:40;99256.75;;;23.91;100.00
22214;BME280;11276;43.566;27.824;2022-07-03T05:16:07;99275.84;;;24.03;100.00
22214;BME280;11276;43.566;27.824;2022-07-03T05:18:34;99268.00;;;24.08;100.00
22214;BME280;11276;43.566;27.824;2022-07-03T05:21:02;99284.00;;;24.29;100.00
22214;BME280;11276;43.566;27.824;2022-07-03T05:23:29;99272.63;;;24.34;100.00
22214;BME280;11276;43.566;27.824;2022-07-03T05:25:55;99280.94;;;24.46;100.00
22214;BME280;11276;43.566;27.824;2022-07-03T05:28:22;99297.28;;;24.64;99.20
22214;BME280;11276;43.566;27.824;2022-07-03T05:30:50;99284.66;;;24.58;97.87
22214;BME280;11276;43.566;27.824;2022-07-03T05:33:17;99292.13;;;24.75;90.12
22214;BME280;11276;43.566;27.824;2022-07-03T05:35:43;99281.75;;;24.79;89.53
22214;BME280;11276;43.566;27.824;2022-07-03T05:38:10;99279.69;;;24.68;89.08
22214;BME280;11276;43.566;27.824;2022-07-03T05:40:37;99302.09;;;24.95;89.53
22214;BME280;11276;43.566;27.824;2022-07-03T05:43:03;99281.97;;;24.97;86.71
22214;BME280;11276;43.566;27.824;2022-07-03T05:45:30;99306.63;;;25.07;89.58
22214;BME280;11276;43.566;27.824;2022-07-03T05:47:57;99304.97;;;25.19;88.56
22214;BME280;11276;43.566;27.824;2022-07-03T05:50:24;99310.13;;;25.27;88.71
22214;BME280;11276;43.566;27.824;2022-07-03T05:52:50;99294.78;;;25.35;89.28
22214;BME280;11276;43.566;27.824;2022-07-03T05:55:17;99312.13;;;25.52;91.46
22214;BME280;11276;43.566;27.824;2022-07-03T05:57:44;99313.13;;;25.77;86.06
22214;BME280;11276;43.566;27.824;2022-07-03T06:00:11;99300.00;;;25.87;86.37
22214;BME280;11276;43.566;27.824;2022-07-03T06:02:38;99313.78;;;26.10;84.72
22214;BME280;11276;43.566;27.824;2022-07-03T06:05:05;99301.09;;;26.18;81.14
22214;BME280;11276;43.566;27.824;2022-07-03T06:07:32;99312.69;;;26.56;81.55
22214;BME280;11276;43.566;27.824;2022-07-03T06:09:58;99312.47;;;27.14;72.87
22214;BME280;11276;43.566;27.824;2022-07-03T06:12:25;99319.38;;;27.89;65.47
22214;BME280;11276;43.566;27.824;2022-07-03T06:14:52;99320.50;;;28.30;58.50
22214;BME280;11276;43.566;27.824;2022-07-03T06:17:19;99321.97;;;28.74;57.82
22214;BME280;11276;43.566;27.824;2022-07-03T06:19:45;99300.06;;;29.57;54.44
22214;BME280;11276;43.566;27.824;2022-07-03T06:22:12;99317.84;;;29.64;56.50
22214;BME280;11276;43.566;27.824;2022-07-03T06:24:39;99307.59;;;29.55;57.34
22214;BME280;11276;43.566;27.824;2022-07-03T06:27:06;99324.81;;;29.02;58.58
22214;BME280;11276;43.566;27.824;2022-07-03T06:29:32;99299.31;;;28.80;59.54
22214;BME280;11276;43.566;27.824;2022-07-03T06:31:59;99319.84;;;28.76;57.14
22214;BME280;11276;43.566;27.824;2022-07-03T06:34:26;99329.66;;;28.88;58.81
22214;BME280;11276;43.566;27.824;2022-07-03T06:36:53;99298.41;;;28.86;55.59
22214;BME280;11276;43.566;27.824;2022-07-03T06:39:19;99326.84;;;29.06;57.96
22214;BME280;11276;43.566;27.824;2022-07-03T06:41:46;99303.72;;;29.27;58.02
22214;BME280;11276;43.566;27.824;2022-07-03T06:44:13;99322.28;;;30.33;54.83
22214;BME280;11276;43.566;27.824;2022-07-03T06:46:40;99310.22;;;30.58;53.76
22214;BME280;11276;43.566;27.824;2022-07-03T06:49:06;99320.91;;;31.86;46.29
22214;BME280;11276;43.566;27.824;2022-07-03T06:51:33;99317.69;;;32.38;42.30
22214;BME280;11276;43.566;27.824;2022-07-03T06:54:00;99301.72;;;32.78;41.86
22214;BME280;11276;43.566;27.824;2022-07-03T06:56:27;99318.91;;;34.10;39.15
22214;BME280;11276;43.566;27.824;2022-07-03T06:58:55;99317.94;;;34.56;35.81
22214;BME280;11276;43.566;27.824;2022-07-03T07:01:22;99306.47;;;35.00;36.52
22214;BME280;11276;43.566;27.824;2022-07-03T07:03:49;99306.38;;;35.56;32.88
22214;BME280;11276;43.566;27.824;2022-07-03T07:06:16;99317.91;;;35.42;34.45
22214;BME280;11276;43.566;27.824;2022-07-03T07:08:43;99318.94;;;35.72;33.39
22214;BME280;11276;43.566;27.824;2022-07-03T07:11:10;99302.00;;;35.55;32.20
22214;BME280;11276;43.566;27.824;2022-07-03T07:13:37;99306.34;;;35.61;32.62
22214;BME280;11276;43.566;27.824;2022-07-03T07:16:04;99315.94;;;37.05;30.78
22214;BME280;11276;43.566;27.824;2022-07-03T07:18:31;99327.63;;;36.87;29.71
22214;BME280;11276;43.566;27.824;2022-07-03T07:20:58;99309.31;;;36.78;28.92
22214;BME280;11276;43.566;27.824;2022-07-03T07:23:25;99321.38;;;37.16;29.86
22214;BME280;11276;43.566;27.824;2022-07-03T07:25:52;99312.25;;;37.44;29.08
22214;BME280;11276;43.566;27.824;2022-07-03T07:28:19;99314.94;;;37.25;28.84
22214;BME280;11276;43.566;27.824;2022-07-03T07:30:46;99332.19;;;36.97;28.18
22214;BME280;11276;43.566;27.824;2022-07-03T07:33:12;99314.81;;;36.34;29.52
22214;BME280;11276;43.566;27.824;2022-07-03T07:35:40;99336.13;;;36.47;29.15
22214;BME280;11276;43.566;27.824;2022-07-03T07:38:07;99331.81;;;37.66;27.91
22214;BME280;11276;43.566;27.824;2022-07-03T07:40:34;99316.22;;;38.65;26.69
22214;BME280;11276;43.566;27.824;2022-07-03T07:43:01;99333.00;;;38.26;26.83
22214;BME280;11276;43.566;27.824;2022-07-03T07:45:28;99315.66;;;38.07;26.31
22214;BME280;11276;43.566;27.824;2022-07-03T07:47:54;99317.03;;;37.33;28.21
22214;BME280;11276;43.566;27.824;2022-07-03T07:50:21;99316.88;;;38.57;26.42
22214;BME280;11276;43.566;27.824;2022-07-03T07:52:48;99340.84;;;37.96;26.82
22214;BME280;11276;43.566;27.824;2022-07-03T07:55:15;99336.75;;;37.12;29.87
22214;BME280;11276;43.566;27.824;2022-07-03T07:57:42;99311.13;;;37.74;28.15
22214;BME280;11276;43.566;27.824;2022-07-03T08:00:12;99327.75;;;37.35;26.84
22214;BME280;11276;43.566;27.824;2022-07-03T08:02:39;99311.63;;;38.00;26.64
22214;BME280;11276;43.566;27.824;2022-07-03T08:05:25;99317.00;;;38.66;25.39
22214;BME280;11276;43.566;27.824;2022-07-03T08:10:54;99322.84;;;38.97;24.28
22214;BME280;11276;43.566;27.824;2022-07-03T08:13:20;99342.69;;;39.58;23.60
22214;BME280;11276;43.566;27.824;2022-07-03T08:15:47;99316.84;;;39.68;23.43
22214;BME280;11276;43.566;27.824;2022-07-03T08:18:14;99322.50;;;39.77;22.50
22214;BME280;11276;43.566;27.824;2022-07-03T08:20:41;99345.50;;;38.94;23.94
22214;BME280;11276;43.566;27.824;2022-07-03T08:23:08;99347.63;;;38.64;25.84
22214;BME280;11276;43.566;27.824;2022-07-03T08:25:35;99344.19;;;39.37;24.18
22214;BME280;11276;43.566;27.824;2022-07-03T08:28:01;99326.75;;;38.21;25.84
22214;BME280;11276;43.566;27.824;2022-07-03T08:30:29;99330.06;;;39.25;25.34
22214;BME280;11276;43.566;27.824;2022-07-03T08:32:57;99339.34;;;39.89;24.32
22214;BME280;11276;43.566;27.824;2022-07-03T08:35:24;99328.53;;;40.78;23.13
22214;BME280;11276;43.566;27.824;2022-07-03T08:37:51;99340.56;;;40.60;23.59
22214;BME280;11276;43.566;27.824;2022-07-03T08:40:19;99319.88;;;40.57;23.87
22214;BME280;11276;43.566;27.824;2022-07-03T08:42:53;99335.03;;;40.60;23.77
22214;BME280;11276;43.566;27.824;2022-07-03T08:45:21;99328.28;;;40.03;22.53
22214;BME280;11276;43.566;27.824;2022-07-03T08:47:51;99332.69;;;38.84;25.56
22214;BME280;11276;43.566;27.824;2022-07-03T08:50:19;99323.00;;;38.87;24.22
22214;BME280;11276;43.566;27.824;2022-07-03T08:52:47;99338.97;;;38.52;24.83
22214;BME280;11276;43.566;27.824;2022-07-03T08:55:16;99329.81;;;38.38;26.68
22214;BME280;11276;43.566;27.824;2022-07-03T08:57:44;99331.94;;;38.04;25.27
22214;BME280;11276;43.566;27.824;2022-07-03T09:00:13;99335.22;;;37.58;24.16
22214;BME280;11276;43.566;27.824;2022-07-03T09:02:43;99314.97;;;36.91;23.86
22214;BME280;11276;43.566;27.824;2022-07-03T09:05:11;99332.25;;;37.55;24.59
22214;BME280;11276;43.566;27.824;2022-07-03T09:07:43;99324.47;;;37.33;23.65
22214;BME280;11276;43.566;27.824;2022-07-03T09:10:14;99319.59;;;36.62;25.26
22214;BME280;11276;43.566;27.824;2022-07-03T09:12:46;99308.78;;;35.72;25.64
22214;BME280;11276;43.566;27.824;2022-07-03T09:15:13;99325.78;;;36.34;26.29
22214;BME280;11276;43.566;27.824;2022-07-03T09:17:56;99332.06;;;35.80;25.32
22214;BME280;11276;43.566;27.824;2022-07-03T09:20:40;99327.56;;;36.04;25.30
22214;BME280;11276;43.566;27.824;2022-07-03T09:23:13;99321.50;;;36.12;25.44
22214;BME280;11276;43.566;27.824;2022-07-03T09:26:00;99314.50;;;35.86;26.36
22214;BME280;11276;43.566;27.824;2022-07-03T09:31:11;99327.66;;;35.84;24.88
22214;BME280;11276;43.566;27.824;2022-07-03T09:36:17;99308.63;;;34.98;28.99
22214;BME280;11276;43.566;27.824;2022-07-03T09:38:44;99316.31;;;35.06;28.80
22214;BME280;11276;43.566;27.824;2022-07-03T09:41:14;99300.41;;;34.63;32.17
22214;BME280;11276;43.566;27.824;2022-07-03T09:43:42;99321.78;;;33.78;34.61
22214;BME280;11276;43.566;27.824;2022-07-03T09:46:09;99304.31;;;33.32;35.23
22214;BME280;11276;43.566;27.824;2022-07-03T09:48:41;99303.44;;;33.73;36.76
22214;BME280;11276;43.566;27.824;2022-07-03T09:51:21;99321.69;;;34.25;32.80
22214;BME280;11276;43.566;27.824;2022-07-03T09:53:54;99315.97;;;34.32;32.18
22214;BME280;11276;43.566;27.824;2022-07-03T09:56:28;99307.50;;;34.38;30.74
22214;BME280;11276;43.566;27.824;2022-07-03T10:01:43;99301.22;;;33.65;28.65
22214;BME280;11276;43.566;27.824;2022-07-03T10:09:19;99302.56;;;34.30;29.58
22214;BME280;11276;43.566;27.824;2022-07-03T10:11:46;99282.25;;;33.44;29.03
22214;BME280;11276;43.566;27.824;2022-07-03T10:14:18;99291.72;;;33.26;28.93
22214;BME280;11276;43.566;27.824;2022-07-03T10:16:46;99280.25;;;33.29;28.64
22214;BME280;11276;43.566;27.824;2022-07-03T10:19:16;99279.78;;;33.00;28.02
22214;BME280;11276;43.566;27.824;2022-07-03T10:21:50;99304.69;;;33.51;28.71
22214;BME280;11276;43.566;27.824;2022-07-03T10:24:17;99286.66;;;33.13;26.99
22214;BME280;11276;43.566;27.824;2022-07-03T10:26:46;99287.56;;;32.81;28.31
22214;BME280;11276;43.566;27.824;2022-07-03T10:29:14;99297.69;;;32.86;28.25
22214;BME280;11276;43.566;27.824;2022-07-03T10:31:45;99275.38;;;32.62;28.24
22214;BME280;11276;43.566;27.824;2022-07-03T10:34:23;99286.13;;;33.11;27.94
22214;BME280;11276;43.566;27.824;2022-07-03T10:37:16;99277.38;;;33.09;28.66
22214;BME280;11276;43.566;27.824;2022-07-03T10:40:00;99261.22;;;32.97;28.49
22214;BME280;11276;43.566;27.824;2022-07-03T10:42:52;99256.94;;;32.74;32.53
22214;BME280;11276;43.566;27.824;2022-07-03T10:46:10;99273.44;;;32.31;35.25
22214;BME280;11276;43.566;27.824;2022-07-03T10:49:04;99265.63;;;32.66;35.40
22214;BME280;11276;43.566;27.824;2022-07-03T10:52:02;99270.13;;;32.82;32.97
22214;BME280;11276;43.566;27.824;2022-07-03T10:54:34;99262.44;;;32.79;33.95
22214;BME280;11276;43.566;27.824;2022-07-03T11:02:21;99249.28;;;32.71;32.63
22214;BME280;11276;43.566;27.824;2022-07-03T11:18:14;99246.38;;;31.97;33.65
22214;BME280;11276;43.566;27.824;2022-07-03T11:25:44;99237.03;;;31.93;31.90
22214;BME280;11276;43.566;27.824;2022-07-03T11:33:46;99210.69;;;31.99;32.92
22214;BME280;11276;43.566;27.824;2022-07-03T11:38:46;99218.81;;;31.67;33.99
22214;BME280;11276;43.566;27.824;2022-07-03T11:41:15;99226.84;;;31.57;33.32
22214;BME280;11276;43.566;27.824;2022-07-03T11:43:50;99235.56;;;31.81;32.27
22214;BME280;11276;43.566;27.824;2022-07-03T11:46:22;99242.97;;;31.63;32.89
22214;BME280;11276;43.566;27.824;2022-07-03T11:49:10;99210.28;;;31.85;32.49
22214;BME280;11276;43.566;27.824;2022-07-03T11:51:40;99210.38;;;31.95;32.89
22214;BME280;11276;43.566;27.824;2022-07-03T11:54:07;99220.88;;;32.35;34.00
22214;BME280;11276;43.566;27.824;2022-07-03T11:56:35;99228.78;;;32.10;32.32
22214;BME280;11276;43.566;27.824;2022-07-03T11:59:05;99235.75;;;31.74;32.50
22214;BME280;11276;43.566;27.824;2022-07-03T12:01:38;99227.63;;;31.79;31.84
22214;BME280;11276;43.566;27.824;2022-07-03T12:04:11;99225.94;;;31.51;31.64
22214;BME280;11276;43.566;27.824;2022-07-03T12:06:49;99216.13;;;31.72;32.91
22214;BME280;11276;43.566;27.824;2022-07-03T12:09:31;99238.44;;;31.96;30.88
22214;BME280;11276;43.566;27.824;2022-07-03T12:12:04;99231.56;;;31.45;31.39
22214;BME280;11276;43.566;27.824;2022-07-03T12:14:51;99235.78;;;31.14;31.87
22214;BME280;11276;43.566;27.824;2022-07-03T12:17:25;99218.75;;;30.85;31.63
22214;BME280;11276;43.566;27.824;2022-07-03T12:20:00;99227.53;;;31.09;31.29
22214;BME280;11276;43.566;27.824;2022-07-03T12:22:33;99229.66;;;31.24;32.22
22214;BME280;11276;43.566;27.824;2022-07-03T12:25:11;99225.84;;;30.86;31.73
22214;BME280;11276;43.566;27.824;2022-07-03T12:27:39;99232.19;;;30.92;32.63
22214;BME280;11276;43.566;27.824;2022-07-03T12:30:29;99223.78;;;30.93;31.97
22214;BME280;11276;43.566;27.824;2022-07-03T12:32:55;99211.88;;;30.99;30.71
22214;BME280;11276;43.566;27.824;2022-07-03T12:35:24;99195.47;;;30.94;32.32
22214;BME280;11276;43.566;27.824;2022-07-03T12:37:51;99223.13;;;31.03;32.43
22214;BME280;11276;43.566;27.824;2022-07-03T12:40:17;99214.50;;;30.94;31.53
22214;BME280;11276;43.566;27.824;2022-07-03T12:42:52;99227.88;;;30.96;33.17
22214;BME280;11276;43.566;27.824;2022-07-03T12:45:20;99218.88;;;30.95;33.14
22214;BME280;11276;43.566;27.824;2022-07-03T12:48:02;99201.94;;;30.88;33.40
22214;BME280;11276;43.566;27.824;2022-07-03T12:53:25;99200.63;;;30.74;32.03
22214;BME280;11276;43.566;27.824;2022-07-03T12:55:52;99222.81;;;30.66;33.44
22214;BME280;11276;43.566;27.824;2022-07-03T12:58:22;99192.88;;;30.32;32.90
22214;BME280;11276;43.566;27.824;2022-07-03T13:01:30;99215.16;;;30.46;32.20
22214;BME280;11276;43.566;27.824;2022-07-03T13:03:57;99215.97;;;30.47;32.23
22214;BME280;11276;43.566;27.824;2022-07-03T13:06:26;99186.03;;;30.30;32.23
22214;BME280;11276;43.566;27.824;2022-07-03T13:09:04;99199.72;;;30.18;32.81
22214;BME280;11276;43.566;27.824;2022-07-03T13:11:32;99209.75;;;30.18;33.02
22214;BME280;11276;43.566;27.824;2022-07-03T13:14:15;99187.78;;;30.36;32.99
22214;BME280;11276;43.566;27.824;2022-07-03T13:19:15;99195.00;;;30.30;32.00
22214;BME280;11276;43.566;27.824;2022-07-03T13:21:43;99198.22;;;30.27;33.34
22214;BME280;11276;43.566;27.824;2022-07-03T13:24:12;99188.59;;;30.36;32.44
22214;BME280;11276;43.566;27.824;2022-07-03T13:26:39;99206.00;;;30.52;32.88
22214;BME280;11276;43.566;27.824;2022-07-03T13:29:07;99196.84;;;30.42;33.48
22214;BME280;11276;43.566;27.824;2022-07-03T13:31:35;99206.53;;;30.21;32.50
22214;BME280;11276;43.566;27.824;2022-07-03T13:34:02;99175.66;;;30.10;33.14
22214;BME280;11276;43.566;27.824;2022-07-03T13:36:30;99175.81;;;30.20;32.84
22214;BME280;11276;43.566;27.824;2022-07-03T13:38:58;99197.06;;;30.40;32.80
22214;BME280;11276;43.566;27.824;2022-07-03T13:41:25;99187.56;;;30.09;31.69
22214;BME280;11276;43.566;27.824;2022-07-03T13:43:52;99196.06;;;29.96;32.86
22214;BME280;11276;43.566;27.824;2022-07-03T13:46:21;99204.56;;;29.88;32.75
22214;BME280;11276;43.566;27.824;2022-07-03T13:48:49;99186.16;;;29.90;34.07
22214;BME280;11276;43.566;27.824;2022-07-03T13:51:16;99180.06;;;30.00;33.06
22214;BME280;11276;43.566;27.824;2022-07-03T13:53:42;99178.88;;;30.07;33.36
22214;BME280;11276;43.566;27.824;2022-07-03T13:56:09;99184.38;;;30.12;32.61
22214;BME280;11276;43.566;27.824;2022-07-03T13:58:36;99195.50;;;30.11;31.69
22214;BME280;11276;43.566;27.824;2022-07-03T14:01:03;99186.16;;;29.90;31.47
22214;BME280;11276;43.566;27.824;2022-07-03T14:03:30;99188.09;;;29.78;31.78
22214;BME280;11276;43.566;27.824;2022-07-03T14:05:56;99185.59;;;29.76;32.38
22214;BME280;11276;43.566;27.824;2022-07-03T14:08:23;99192.06;;;29.87;31.83
22214;BME280;11276;43.566;27.824;2022-07-03T14:10:50;99184.38;;;29.56;32.25
22214;BME280;11276;43.566;27.824;2022-07-03T14:13:17;99185.56;;;29.60;33.23
22214;BME280;11276;43.566;27.824;2022-07-03T14:15:43;99165.25;;;29.62;33.02
22214;BME280;11276;43.566;27.824;2022-07-03T14:18:10;99182.94;;;29.65;32.26
22214;BME280;11276;43.566;27.824;2022-07-03T14:20:37;99159.75;;;29.45;31.61
22214;BME280;11276;43.566;27.824;2022-07-03T14:23:04;99165.59;;;29.37;32.80
22214;BME280;11276;43.566;27.824;2022-07-03T14:25:30;99163.09;;;29.36;32.59
22214;BME280;11276;43.566;27.824;2022-07-03T14:27:57;99160.63;;;29.34;32.16
22214;BME280;11276;43.566;27.824;2022-07-03T14:30:42;99164.19;;;29.23;32.84
22214;BME280;11276;43.566;27.824;2022-07-03T14:33:27;99176.56;;;29.31;32.61
22214;BME280;11276;43.566;27.824;2022-07-03T14:35:54;99182.06;;;29.47;35.09